createdAt,value
2023-05-09T00:00:23.130Z,14.98
2023-05-09T00:01:23.124Z,15.01
2023-05-09T00:02:23.186Z,15.03
2023-05-09T00:03:23.123Z,15.03
2023-05-09T00:04:23.115Z,15.03
2023-05-09T00:05:23.101Z,15.02
2023-05-09T00:06:23.097Z,15.02
2023-05-09T00:07:23.067Z,15.01
2023-05-09T00:08:23.046Z,15.01
2023-05-09T00:09:23.107Z,15.01
2023-05-09T00:10:22.998Z,15.02
2023-05-09T00:11:23.015Z,15.06
2023-05-09T00:12:23.005Z,15.09
2023-05-09T00:13:23.066Z,15.09
2023-05-09T00:14:22.994Z,15.07
2023-05-09T00:15:22.944Z,15.07
2023-05-09T00:16:23.311Z,15.07
2023-05-09T00:17:22.992Z,15.09
2023-05-09T00:18:22.935Z,15.09
2023-05-09T00:19:22.927Z,15.07
2023-05-09T00:20:22.924Z,15.06
2023-05-09T00:21:22.872Z,15.02
2023-05-09T00:22:22.878Z,14.99
2023-05-09T00:23:22.933Z,14.96
2023-05-09T00:24:22.858Z,14.96
2023-05-09T00:25:22.872Z,14.96
2023-05-09T00:26:22.862Z,14.92
2023-05-09T00:27:22.833Z,14.88
2023-05-09T00:28:22.793Z,14.88
2023-05-09T00:29:22.817Z,14.83
2023-05-09T00:30:22.824Z,14.80
2023-05-09T00:31:22.815Z,14.80
2023-05-09T00:32:22.807Z,14.78
2023-05-09T00:33:22.753Z,14.77
2023-05-09T00:34:22.761Z,14.75
2023-05-09T00:35:22.785Z,14.75
2023-05-09T00:36:22.733Z,14.77
2023-05-09T00:37:22.758Z,14.78
2023-05-09T00:38:22.763Z,14.80
2023-05-09T00:39:22.728Z,14.83
2023-05-09T00:40:22.754Z,14.86
2023-05-09T00:41:22.687Z,14.86
2023-05-09T00:42:22.705Z,14.89
2023-05-09T00:43:22.641Z,14.88
2023-05-09T00:44:22.626Z,14.88
2023-05-09T00:45:22.672Z,14.89
2023-05-09T00:46:22.626Z,14.89
2023-05-09T00:47:22.785Z,14.89
2023-05-09T00:48:22.611Z,14.91
2023-05-09T00:49:22.633Z,14.89
2023-05-09T00:50:22.571Z,14.84
2023-05-09T00:51:22.561Z,14.83
2023-05-09T00:52:22.520Z,14.80
2023-05-09T00:53:22.533Z,14.78
2023-05-09T00:54:22.514Z,14.77
2023-05-09T00:55:22.530Z,14.70
2023-05-09T00:56:22.504Z,14.69
2023-05-09T00:57:22.536Z,14.68
2023-05-09T00:58:22.485Z,14.61
2023-05-09T00:59:22.486Z,14.60
2023-05-09T01:00:22.489Z,14.57
2023-05-09T01:01:22.616Z,14.54
2023-05-09T01:02:22.498Z,14.50
2023-05-09T01:03:22.510Z,14.46
2023-05-09T01:04:22.404Z,14.43
2023-05-09T01:05:22.389Z,14.39
2023-05-09T01:06:22.368Z,14.39
2023-05-09T01:07:22.377Z,14.35
2023-05-09T01:08:22.347Z,14.29
2023-05-09T01:09:22.391Z,14.25
2023-05-09T01:10:22.339Z,14.24
2023-05-09T01:11:22.341Z,14.20
2023-05-09T01:12:22.323Z,14.17
2023-05-09T01:13:22.408Z,14.14
2023-05-09T01:14:22.317Z,14.10
2023-05-09T01:15:22.296Z,14.07
2023-05-09T01:16:22.381Z,14.04
2023-05-09T01:17:22.295Z,14.02
2023-05-09T01:18:22.350Z,14.00
2023-05-09T01:19:22.286Z,13.97
2023-05-09T01:20:22.250Z,13.97
2023-05-09T01:21:22.204Z,13.97
2023-05-09T01:22:22.209Z,13.99
2023-05-09T01:23:22.245Z,14.00
2023-05-09T01:24:22.276Z,14.02
2023-05-09T01:25:22.229Z,14.00
2023-05-09T01:26:22.192Z,13.96
2023-05-09T01:27:22.157Z,13.92
2023-05-09T01:28:22.161Z,13.95
2023-05-09T01:29:22.139Z,13.92
2023-05-09T01:30:22.108Z,13.92
2023-05-09T01:31:22.139Z,13.91
2023-05-09T01:32:22.162Z,13.89
2023-05-09T01:33:22.086Z,13.88
2023-05-09T01:34:22.125Z,13.88
2023-05-09T01:35:22.083Z,13.85
2023-05-09T01:36:22.086Z,13.82
2023-05-09T01:37:22.030Z,13.81
2023-05-09T01:38:22.096Z,13.78
2023-05-09T01:39:22.023Z,13.73
2023-05-09T01:40:22.031Z,13.73
2023-05-09T01:41:22.000Z,13.70
2023-05-09T01:42:21.996Z,13.66
2023-05-09T01:43:21.978Z,13.64
2023-05-09T01:44:21.977Z,13.63
2023-05-09T01:45:21.957Z,13.62
2023-05-09T01:46:21.989Z,13.55
2023-05-09T01:47:21.952Z,13.54
2023-05-09T01:48:21.961Z,13.51
2023-05-09T01:49:21.960Z,13.49
2023-05-09T01:50:21.969Z,13.46
2023-05-09T01:51:21.917Z,13.44
2023-05-09T01:52:21.899Z,13.44
2023-05-09T01:53:21.869Z,13.42
2023-05-09T01:54:21.886Z,13.41
2023-05-09T01:55:21.863Z,13.39
2023-05-09T01:56:21.880Z,13.32
2023-05-09T01:57:21.896Z,13.30
2023-05-09T01:58:21.809Z,13.28
2023-05-09T01:59:21.811Z,13.28
2023-05-09T02:00:21.855Z,13.28
2023-05-09T02:01:21.838Z,13.26
2023-05-09T02:03:25.238Z,13.23
2023-05-09T02:04:25.139Z,13.15
2023-05-09T02:05:25.090Z,13.12
2023-05-09T02:06:25.099Z,13.11
2023-05-09T02:07:25.076Z,13.05
2023-05-09T02:08:25.080Z,13.04
2023-05-09T02:09:25.096Z,12.97
2023-05-09T02:10:25.074Z,12.93
2023-05-09T02:11:25.025Z,12.90
2023-05-09T02:12:25.071Z,12.87
2023-05-09T02:13:25.181Z,12.85
2023-05-09T02:14:24.998Z,12.86
2023-05-09T02:15:25.019Z,12.89
2023-05-09T02:16:25.041Z,12.87
2023-05-09T02:17:24.978Z,12.86
2023-05-09T02:18:25.039Z,12.85
2023-05-09T02:19:24.960Z,12.82
2023-05-09T02:20:24.944Z,12.79
2023-05-09T02:21:25.621Z,12.75
2023-05-09T02:22:24.925Z,12.74
2023-05-09T02:23:24.911Z,12.70
2023-05-09T02:24:24.904Z,12.67
2023-05-09T02:25:24.908Z,12.64
2023-05-09T02:26:24.884Z,12.60
2023-05-09T02:27:24.876Z,12.57
2023-05-09T02:28:24.862Z,12.57
2023-05-09T02:29:24.848Z,12.52
2023-05-09T02:30:24.840Z,12.52
2023-05-09T02:31:24.812Z,12.47
2023-05-09T02:32:24.863Z,12.45
2023-05-09T02:33:24.794Z,12.38
2023-05-09T02:34:24.793Z,12.34
2023-05-09T02:35:24.765Z,12.29
2023-05-09T02:36:24.785Z,12.28
2023-05-09T02:37:24.761Z,12.23
2023-05-09T02:38:24.756Z,12.23
2023-05-09T02:39:24.732Z,12.17
2023-05-09T02:40:24.721Z,12.16
2023-05-09T02:41:24.735Z,12.13
2023-05-09T02:42:24.707Z,12.12
2023-05-09T02:43:24.696Z,12.12
2023-05-09T02:44:24.712Z,12.09
2023-05-09T02:45:24.682Z,12.05
2023-05-09T02:46:24.717Z,12.05
2023-05-09T02:47:24.668Z,12.09
2023-05-09T02:48:24.689Z,12.10
2023-05-09T02:49:32.103Z,12.10
2023-05-09T02:50:25.618Z,12.12
2023-05-09T02:51:24.633Z,12.10
2023-05-09T02:52:24.618Z,12.07
2023-05-09T02:53:24.567Z,12.07
2023-05-09T02:54:24.615Z,12.04
2023-05-09T02:55:24.588Z,12.04
2023-05-09T02:56:24.556Z,12.02
2023-05-09T02:57:24.526Z,11.99
2023-05-09T02:58:24.544Z,11.99
2023-05-09T02:59:24.500Z,11.99
2023-05-09T03:00:24.488Z,11.98
2023-05-09T03:01:24.541Z,11.96
2023-05-09T03:02:24.588Z,11.94
2023-05-09T03:03:24.564Z,11.90
2023-05-09T03:04:24.504Z,11.86
2023-05-09T03:05:24.471Z,11.83
2023-05-09T03:06:24.455Z,11.80
2023-05-09T03:07:24.444Z,11.79
2023-05-09T03:08:24.435Z,11.76
2023-05-09T03:09:24.402Z,11.75
2023-05-09T03:10:24.403Z,11.73
2023-05-09T03:11:24.386Z,11.72
2023-05-09T03:12:24.416Z,11.73
2023-05-09T03:13:24.389Z,11.72
2023-05-09T03:14:24.393Z,11.72
2023-05-09T03:15:24.357Z,11.73
2023-05-09T03:16:24.477Z,11.72
2023-05-09T03:17:24.465Z,11.72
2023-05-09T03:18:24.321Z,11.65
2023-05-09T03:19:24.294Z,11.67
2023-05-09T03:20:24.470Z,11.64
2023-05-09T03:21:24.280Z,11.62
2023-05-09T03:22:24.291Z,11.60
2023-05-09T03:23:24.264Z,11.61
2023-05-09T03:24:24.272Z,11.57
2023-05-09T03:25:24.247Z,11.58
2023-05-09T03:26:24.269Z,11.58
2023-05-09T03:27:24.215Z,11.54
2023-05-09T03:28:24.224Z,11.54
2023-05-09T03:29:24.211Z,11.52
2023-05-09T03:30:24.212Z,11.52
2023-05-09T03:31:24.227Z,11.47
2023-05-09T03:32:24.273Z,11.49
2023-05-09T03:33:24.150Z,11.51
2023-05-09T03:34:24.185Z,11.47
2023-05-09T03:35:24.152Z,11.46
2023-05-09T03:36:24.137Z,11.42
2023-05-09T03:37:26.253Z,11.40
2023-05-09T03:38:24.119Z,11.36
2023-05-09T03:39:24.098Z,11.33
2023-05-09T03:40:24.104Z,11.33
2023-05-09T03:41:24.062Z,11.28
2023-05-09T03:42:24.071Z,11.25
2023-05-09T03:43:24.031Z,11.24
2023-05-09T03:44:24.109Z,11.21
2023-05-09T03:45:24.024Z,11.24
2023-05-09T03:46:24.131Z,11.22
2023-05-09T03:47:24.002Z,11.21
2023-05-09T03:48:24.026Z,11.24
2023-05-09T03:49:23.973Z,11.24
2023-05-09T03:50:23.969Z,11.25
2023-05-09T03:51:24.005Z,11.28
2023-05-09T03:52:23.957Z,11.29
2023-05-09T03:53:23.953Z,11.29
2023-05-09T03:54:23.966Z,11.33
2023-05-09T03:55:23.915Z,11.32
2023-05-09T03:56:23.903Z,11.28
2023-05-09T03:57:23.900Z,11.29
2023-05-09T03:58:23.904Z,11.29
2023-05-09T03:59:23.865Z,11.33
2023-05-09T04:00:23.865Z,11.33
2023-05-09T04:01:23.870Z,11.35
2023-05-09T04:02:24.005Z,11.35
2023-05-09T04:03:23.866Z,11.33
2023-05-09T04:04:23.835Z,11.36
2023-05-09T04:05:23.822Z,11.39
2023-05-09T04:06:23.820Z,11.39
2023-05-09T04:07:23.793Z,11.42
2023-05-09T04:08:23.791Z,11.44
2023-05-09T04:09:23.771Z,11.44
2023-05-09T04:10:23.783Z,11.46
2023-05-09T04:11:23.749Z,11.46
2023-05-09T04:12:23.757Z,11.46
2023-05-09T04:13:23.779Z,11.47
2023-05-09T04:14:23.728Z,11.47
2023-05-09T04:15:23.718Z,11.49
2023-05-09T04:16:23.756Z,11.49
2023-05-09T04:17:23.713Z,11.51
2023-05-09T04:18:23.705Z,11.52
2023-05-09T04:19:23.661Z,11.52
2023-05-09T04:20:23.691Z,11.52
2023-05-09T04:21:23.631Z,11.52
2023-05-09T04:22:23.725Z,11.52
2023-05-09T04:23:23.617Z,11.54
2023-05-09T04:24:23.619Z,11.54
2023-05-09T04:25:23.606Z,11.54
2023-05-09T04:26:23.590Z,11.55
2023-05-09T04:27:23.568Z,11.58
2023-05-09T04:28:23.565Z,11.57
2023-05-09T04:29:23.548Z,11.58
2023-05-09T04:30:23.592Z,11.60
2023-05-09T04:31:23.595Z,11.58
2023-05-09T04:32:23.556Z,11.62
2023-05-09T04:33:23.506Z,11.64
2023-05-09T04:34:23.508Z,11.69
2023-05-09T04:35:23.574Z,11.70
2023-05-09T04:36:23.477Z,11.75
2023-05-09T04:37:23.491Z,11.75
2023-05-09T04:38:23.459Z,11.80
2023-05-09T04:39:23.477Z,11.82
2023-05-09T04:40:25.438Z,11.86
2023-05-09T04:41:23.421Z,11.90
2023-05-09T04:42:23.412Z,11.95
2023-05-09T04:43:23.403Z,11.98
2023-05-09T04:44:23.441Z,12.02
2023-05-09T04:45:23.426Z,12.07
2023-05-09T04:46:25.651Z,12.10
2023-05-09T04:47:23.359Z,12.13
2023-05-09T04:48:23.356Z,12.17
2023-05-09T04:49:23.344Z,12.23
2023-05-09T04:50:23.314Z,12.27
2023-05-09T04:51:23.315Z,12.29
2023-05-09T04:52:23.350Z,12.34
2023-05-09T04:53:23.388Z,12.38
2023-05-09T04:54:23.272Z,12.45
2023-05-09T04:55:23.274Z,12.49
2023-05-09T04:56:23.271Z,12.56
2023-05-09T04:57:23.265Z,12.59
2023-05-09T04:58:23.233Z,12.64
2023-05-09T04:59:23.249Z,12.70
2023-05-09T05:00:23.223Z,12.72
2023-05-09T05:01:23.255Z,12.72
2023-05-09T05:02:23.310Z,12.78
2023-05-09T05:03:23.194Z,12.83
2023-05-09T05:04:23.180Z,12.87
2023-05-09T05:05:25.263Z,12.92
2023-05-09T05:06:23.148Z,12.96
2023-05-09T05:07:23.148Z,13.01
2023-05-09T05:08:23.127Z,13.03
2023-05-09T05:09:25.326Z,13.10
2023-05-09T05:10:23.108Z,13.12
2023-05-09T05:11:23.113Z,13.15
2023-05-09T05:12:23.094Z,13.23
2023-05-09T05:13:23.120Z,13.26
2023-05-09T05:14:23.060Z,13.30
2023-05-09T05:15:23.063Z,13.36
2023-05-09T05:16:23.086Z,13.42
2023-05-09T05:17:23.144Z,13.46
2023-05-09T05:18:23.047Z,13.52
2023-05-09T05:19:23.022Z,13.57
2023-05-09T05:20:23.006Z,13.62
2023-05-09T05:21:23.007Z,13.67
2023-05-09T05:22:22.994Z,13.71
2023-05-09T05:23:23.005Z,13.78
2023-05-09T05:24:23.046Z,13.82
2023-05-09T05:25:22.963Z,13.87
2023-05-09T05:26:22.935Z,13.95
2023-05-09T05:27:22.954Z,13.96
2023-05-09T05:28:22.916Z,14.03
2023-05-09T05:29:22.952Z,14.06
2023-05-09T05:30:22.904Z,14.12
2023-05-09T05:31:22.989Z,14.20
2023-05-09T05:32:22.880Z,14.25
2023-05-09T05:33:22.872Z,14.35
2023-05-09T05:34:22.889Z,14.39
2023-05-09T05:35:22.918Z,14.43
2023-05-09T05:36:22.841Z,14.55
2023-05-09T05:37:22.846Z,14.62
2023-05-09T05:38:22.802Z,14.70
2023-05-09T05:39:22.810Z,14.77
2023-05-09T05:40:22.790Z,14.84
2023-05-09T05:41:22.816Z,14.94
2023-05-09T05:42:22.781Z,15.01
2023-05-09T05:43:22.791Z,15.10
2023-05-09T05:44:22.747Z,15.16
2023-05-09T05:45:22.765Z,15.19
2023-05-09T05:46:22.841Z,15.28
2023-05-09T05:47:22.757Z,15.32
2023-05-09T05:48:22.731Z,15.39
2023-05-09T05:49:22.693Z,15.47
2023-05-09T05:50:22.700Z,15.53
2023-05-09T05:51:22.671Z,15.56
2023-05-09T05:52:22.686Z,15.62
2023-05-09T05:53:22.663Z,15.65
2023-05-09T05:54:22.616Z,15.71
2023-05-09T05:55:22.675Z,15.75
2023-05-09T05:56:22.624Z,15.82
2023-05-09T05:57:22.633Z,15.87
2023-05-09T05:58:22.615Z,15.89
2023-05-09T05:59:22.613Z,15.92
2023-05-09T06:00:22.553Z,15.92
2023-05-09T06:01:22.557Z,15.92
2023-05-09T06:02:22.589Z,15.94
2023-05-09T06:03:22.685Z,15.97
2023-05-09T06:04:22.595Z,15.97
2023-05-09T06:05:22.511Z,16.02
2023-05-09T06:06:22.484Z,16.08
2023-05-09T06:07:22.516Z,16.14
2023-05-09T06:08:22.472Z,16.20
2023-05-09T06:09:22.474Z,16.27
2023-05-09T06:10:22.440Z,16.31
2023-05-09T06:11:22.481Z,16.39
2023-05-09T06:12:22.436Z,16.49
2023-05-09T06:13:22.575Z,16.53
2023-05-09T06:14:22.444Z,16.52
2023-05-09T06:15:22.412Z,16.56
2023-05-09T06:16:22.411Z,16.60
2023-05-09T06:17:22.379Z,16.66
2023-05-09T06:18:22.363Z,16.67
2023-05-09T06:19:22.365Z,16.70
2023-05-09T06:20:22.368Z,16.71
2023-05-09T06:21:22.339Z,16.81
2023-05-09T06:22:22.327Z,16.83
2023-05-09T06:23:22.345Z,16.93
2023-05-09T06:24:34.464Z,16.94
2023-05-09T06:25:23.319Z,16.97
2023-05-09T06:26:22.304Z,17.00
2023-05-09T06:27:22.313Z,17.00
2023-05-09T06:28:22.257Z,17.01
2023-05-09T06:29:22.237Z,17.03
2023-05-09T06:30:26.257Z,17.06
2023-05-09T06:31:24.139Z,17.06
2023-05-09T06:32:22.300Z,17.12
2023-05-09T06:33:22.214Z,17.08
2023-05-09T06:34:22.204Z,17.15
2023-05-09T06:35:22.290Z,17.16
2023-05-09T06:36:22.165Z,17.19
2023-05-09T06:37:22.162Z,17.30
2023-05-09T06:38:22.171Z,17.30
2023-05-09T06:39:22.157Z,17.41
2023-05-09T06:40:22.130Z,17.46
2023-05-09T06:41:22.139Z,17.51
2023-05-09T06:42:22.115Z,17.55
2023-05-09T06:43:22.111Z,17.56
2023-05-09T06:44:22.081Z,17.59
2023-05-09T06:45:22.113Z,17.58
2023-05-09T06:46:22.184Z,17.59
2023-05-09T06:47:22.065Z,17.63
2023-05-09T06:48:22.036Z,17.64
2023-05-09T06:49:22.047Z,17.68
2023-05-09T06:50:22.016Z,17.75
2023-05-09T06:51:22.041Z,17.84
2023-05-09T06:52:22.009Z,17.92
2023-05-09T06:53:22.041Z,17.93
2023-05-09T06:54:21.972Z,17.96
2023-05-09T06:55:21.978Z,18.00
2023-05-09T06:56:22.122Z,18.00
2023-05-09T06:57:21.954Z,17.99
2023-05-09T06:58:21.940Z,17.96
2023-05-09T06:59:21.949Z,17.96
2023-05-09T07:00:21.927Z,17.97
2023-05-09T07:01:21.977Z,18.03
2023-05-09T07:02:21.908Z,18.11
2023-05-09T07:03:21.903Z,18.18
2023-05-09T07:04:21.885Z,18.20
2023-05-09T07:05:21.959Z,18.25
2023-05-09T07:06:21.870Z,18.26
2023-05-09T07:07:21.853Z,18.30
2023-05-09T07:08:21.824Z,18.35
2023-05-09T07:09:21.844Z,18.36
2023-05-09T07:10:21.796Z,18.32
2023-05-09T07:11:21.824Z,18.41
2023-05-09T07:12:21.794Z,18.50
2023-05-09T07:13:21.827Z,18.55
2023-05-09T07:14:21.776Z,18.65
2023-05-09T07:15:36.796Z,18.67
2023-05-09T07:16:22.833Z,18.72
2023-05-09T07:17:23.878Z,18.76
2023-05-09T07:18:21.723Z,18.81
2023-05-09T07:19:23.795Z,18.95
2023-05-09T07:20:21.773Z,19.08
2023-05-09T07:21:21.768Z,19.22
2023-05-09T07:22:21.791Z,19.37
2023-05-09T07:23:21.735Z,19.48
2023-05-09T07:24:21.739Z,19.68
2023-05-09T07:25:21.664Z,19.84
2023-05-09T07:26:21.644Z,19.99
2023-05-09T07:27:21.807Z,20.29
2023-05-09T07:28:21.625Z,20.69
2023-05-09T07:29:21.652Z,20.84
2023-05-09T07:30:21.634Z,20.94
2023-05-09T07:31:21.728Z,20.98
2023-05-09T07:32:21.674Z,21.12
2023-05-09T07:33:21.624Z,21.19
2023-05-09T07:34:21.546Z,21.24
2023-05-09T07:35:21.571Z,21.12
2023-05-09T07:36:22.717Z,20.84
2023-05-09T07:37:21.539Z,20.74
2023-05-09T07:38:21.517Z,20.66
2023-05-09T07:39:21.527Z,20.58
2023-05-09T07:40:21.507Z,20.57
2023-05-09T07:41:21.585Z,20.33
2023-05-09T07:42:21.582Z,20.32
2023-05-09T07:43:21.466Z,20.20
2023-05-09T07:44:21.443Z,20.10
2023-05-09T07:45:23.771Z,20.11
2023-05-09T07:46:21.511Z,20.13
2023-05-09T07:47:21.436Z,19.99
2023-05-09T07:48:21.392Z,19.95
2023-05-09T07:49:21.395Z,19.96
2023-05-09T07:50:21.383Z,19.96
2023-05-09T07:51:21.383Z,19.87
2023-05-09T07:52:21.373Z,19.78
2023-05-09T07:53:21.345Z,19.80
2023-05-09T07:54:21.339Z,19.83
2023-05-09T07:55:21.325Z,19.83
2023-05-09T07:56:21.327Z,19.83
2023-05-09T07:57:21.334Z,19.77
2023-05-09T07:58:21.376Z,19.65
2023-05-09T07:59:21.287Z,19.50
2023-05-09T08:00:21.282Z,19.29
2023-05-09T08:01:21.277Z,19.22
2023-05-09T08:02:22.021Z,19.13
2023-05-09T08:03:28.301Z,19.06
2023-05-09T08:04:21.266Z,19.08
2023-05-09T08:05:22.932Z,19.10
2023-05-09T08:06:21.215Z,19.11
2023-05-09T08:07:21.227Z,19.13
2023-05-09T08:08:21.183Z,19.10
2023-05-09T08:09:21.170Z,19.07
2023-05-09T08:10:21.160Z,19.04
2023-05-09T08:11:21.164Z,19.00
2023-05-09T08:12:21.125Z,18.91
2023-05-09T08:13:21.239Z,18.88
2023-05-09T08:14:21.118Z,18.90
2023-05-09T08:15:21.110Z,18.94
2023-05-09T08:16:21.168Z,18.92
2023-05-09T08:17:21.119Z,18.94
2023-05-09T08:18:21.091Z,18.99
2023-05-09T08:19:21.104Z,19.02
2023-05-09T08:20:21.054Z,19.06
2023-05-09T08:21:22.264Z,19.14
2023-05-09T08:22:21.035Z,19.28
2023-05-09T08:23:21.043Z,19.40
2023-05-09T08:24:21.008Z,19.55
2023-05-09T08:25:21.028Z,19.77
2023-05-09T08:26:20.978Z,19.95
2023-05-09T08:27:20.985Z,20.13
2023-05-09T08:28:20.956Z,20.28
2023-05-09T08:29:21.098Z,20.38
2023-05-09T08:30:20.967Z,20.50
2023-05-09T08:31:20.973Z,20.59
2023-05-09T08:32:20.976Z,20.70
2023-05-09T08:33:20.921Z,20.70
2023-05-09T08:34:20.920Z,20.55
2023-05-09T08:35:20.892Z,20.43
2023-05-09T08:36:20.894Z,20.47
2023-05-09T08:37:20.883Z,20.57
2023-05-09T08:38:20.872Z,20.62
2023-05-09T08:39:20.887Z,20.72
2023-05-09T08:40:20.843Z,20.74
2023-05-09T08:41:20.924Z,20.82
2023-05-09T08:42:20.828Z,20.98
2023-05-09T08:43:20.819Z,21.06
2023-05-09T08:44:20.793Z,21.04
2023-05-09T08:45:20.810Z,21.03
2023-05-09T08:46:20.804Z,21.06
2023-05-09T08:47:20.791Z,21.06
2023-05-09T08:48:20.751Z,21.07
2023-05-09T08:49:20.767Z,20.92
2023-05-09T08:50:20.760Z,20.82
2023-05-09T08:51:20.716Z,20.85
2023-05-09T08:52:20.708Z,20.91
2023-05-09T08:53:20.693Z,20.91
2023-05-09T08:54:22.677Z,20.97
2023-05-09T08:55:20.675Z,20.88
2023-05-09T08:56:20.674Z,20.79
2023-05-09T08:57:20.655Z,20.64
2023-05-09T08:58:20.655Z,20.43
2023-05-09T08:59:20.633Z,20.41
2023-05-09T09:00:21.260Z,20.43
2023-05-09T09:01:20.702Z,20.48
2023-05-09T09:02:20.609Z,20.47
2023-05-09T09:03:20.592Z,20.54
2023-05-09T09:04:20.637Z,20.67
2023-05-09T09:05:39.902Z,20.88
2023-05-09T09:06:21.562Z,21.07
2023-05-09T09:07:20.537Z,21.22
2023-05-09T09:08:20.533Z,21.37
2023-05-09T09:09:20.511Z,21.46
2023-05-09T09:10:20.568Z,21.52
2023-05-09T09:11:20.504Z,21.35
2023-05-09T09:12:20.500Z,21.29
2023-05-09T09:13:20.550Z,21.37
2023-05-09T09:14:20.473Z,21.56
2023-05-09T09:15:20.469Z,21.72
2023-05-09T09:16:20.524Z,21.69
2023-05-09T09:17:20.453Z,21.61
2023-05-09T09:18:20.435Z,21.54
2023-05-09T09:19:20.418Z,21.44
2023-05-09T09:20:20.492Z,21.43
2023-05-09T09:21:20.414Z,21.47
2023-05-09T09:22:20.397Z,21.64
2023-05-09T09:23:20.362Z,21.79
2023-05-09T09:24:20.385Z,21.84
2023-05-09T09:25:20.340Z,21.91
2023-05-09T09:26:20.347Z,22.09
2023-05-09T09:27:20.352Z,22.24
2023-05-09T09:28:20.332Z,22.47
2023-05-09T09:29:20.299Z,22.64
2023-05-09T09:30:20.411Z,22.72
2023-05-09T09:31:20.466Z,22.76
2023-05-09T09:32:20.326Z,22.77
2023-05-09T09:33:20.275Z,22.79
2023-05-09T09:34:20.286Z,22.68
2023-05-09T09:35:20.273Z,22.64
2023-05-09T09:36:20.231Z,22.60
2023-05-09T09:37:20.221Z,22.40
2023-05-09T09:38:20.232Z,22.24
2023-05-09T09:39:20.195Z,22.14
2023-05-09T09:40:20.266Z,22.02
2023-05-09T09:41:20.181Z,22.00
2023-05-09T09:42:20.194Z,21.98
2023-05-09T09:43:20.169Z,21.94
2023-05-09T09:44:20.179Z,21.90
2023-05-09T09:45:20.277Z,21.83
2023-05-09T09:46:20.214Z,21.75
2023-05-09T09:47:20.100Z,21.71
2023-05-09T09:48:20.101Z,21.69
2023-05-09T09:49:20.068Z,21.65
2023-05-09T09:50:20.235Z,21.67
2023-05-09T09:51:20.079Z,21.61
2023-05-09T09:52:20.044Z,21.59
2023-05-09T09:53:20.081Z,21.59
2023-05-09T09:54:20.070Z,21.52
2023-05-09T09:55:20.033Z,21.47
2023-05-09T09:56:20.021Z,21.46
2023-05-09T09:57:20.009Z,21.43
2023-05-09T09:58:20.008Z,21.44
2023-05-09T09:59:20.041Z,21.42
2023-05-09T10:00:19.972Z,21.34
2023-05-09T10:01:19.986Z,21.29
2023-05-09T10:02:20.029Z,21.28
2023-05-09T10:03:20.064Z,21.28
2023-05-09T10:04:19.946Z,21.31
2023-05-09T10:05:19.919Z,21.28
2023-05-09T10:06:19.950Z,21.12
2023-05-09T10:07:19.926Z,20.91
2023-05-09T10:08:19.917Z,20.79
2023-05-09T10:09:19.901Z,20.76
2023-05-09T10:10:19.936Z,20.76
2023-05-09T10:11:19.916Z,20.79
2023-05-09T10:12:19.917Z,20.80
2023-05-09T10:13:19.893Z,20.88
2023-05-09T10:14:19.894Z,20.95
2023-05-09T10:15:19.856Z,21.01
2023-05-09T10:16:25.930Z,21.10
2023-05-09T10:17:20.910Z,21.19
2023-05-09T10:18:20.190Z,21.16
2023-05-09T10:19:19.782Z,21.03
2023-05-09T10:20:19.775Z,20.94
2023-05-09T10:21:19.756Z,20.79
2023-05-09T10:22:19.770Z,20.73
2023-05-09T10:23:19.752Z,20.69
2023-05-09T10:24:19.722Z,20.67
2023-05-09T10:25:19.799Z,20.76
2023-05-09T10:26:19.711Z,20.85
2023-05-09T10:27:19.694Z,20.95
2023-05-09T10:28:19.689Z,21.06
2023-05-09T10:29:19.672Z,21.13
2023-05-09T10:30:19.669Z,21.12
2023-05-09T10:31:19.675Z,21.01
2023-05-09T10:32:19.647Z,21.10
2023-05-09T10:33:19.641Z,21.22
2023-05-09T10:34:19.626Z,21.46
2023-05-09T10:35:19.657Z,21.61
2023-05-09T10:36:19.603Z,21.68
2023-05-09T10:37:20.620Z,21.64
2023-05-09T10:38:19.589Z,21.61
2023-05-09T10:39:19.561Z,21.74
2023-05-09T10:40:19.756Z,21.86
2023-05-09T10:41:19.543Z,21.94
2023-05-09T10:42:19.538Z,21.82
2023-05-09T10:43:19.527Z,21.83
2023-05-09T10:44:19.521Z,22.00
2023-05-09T10:45:19.521Z,22.03
2023-05-09T10:46:19.539Z,21.99
2023-05-09T10:47:19.567Z,22.10
2023-05-09T10:48:19.518Z,22.21
2023-05-09T10:49:19.465Z,22.30
2023-05-09T10:50:19.461Z,22.43
2023-05-09T10:51:19.437Z,22.45
2023-05-09T10:52:19.426Z,22.58
2023-05-09T10:53:19.427Z,22.70
2023-05-09T10:54:19.408Z,22.77
2023-05-09T10:55:19.398Z,22.94
2023-05-09T10:56:19.389Z,23.02
2023-05-09T10:57:19.374Z,22.75
2023-05-09T10:58:19.356Z,22.55
2023-05-09T10:59:19.338Z,22.49
2023-05-09T11:00:19.343Z,22.47
2023-05-09T11:01:19.357Z,22.45
2023-05-09T11:02:19.368Z,22.47
2023-05-09T11:03:19.440Z,22.39
2023-05-09T11:04:19.344Z,22.46
2023-05-09T11:05:19.320Z,22.47
2023-05-09T11:06:19.267Z,22.36
2023-05-09T11:07:19.280Z,22.46
2023-05-09T11:08:19.262Z,22.61
2023-05-09T11:09:19.244Z,22.82
2023-05-09T11:10:19.261Z,23.04
2023-05-09T11:11:19.209Z,23.20
2023-05-09T11:12:19.223Z,23.39
2023-05-09T11:13:19.290Z,23.51
2023-05-09T11:14:19.200Z,23.70
2023-05-09T11:15:19.176Z,23.87
2023-05-09T11:16:19.181Z,23.93
2023-05-09T11:17:19.157Z,23.90
2023-05-09T11:18:19.152Z,23.84
2023-05-09T11:19:19.119Z,23.66
2023-05-09T11:20:19.146Z,23.72
2023-05-09T11:21:19.101Z,23.80
2023-05-09T11:22:19.120Z,23.78
2023-05-09T11:23:19.119Z,23.51
2023-05-09T11:24:19.156Z,23.39
2023-05-09T11:25:19.110Z,23.32
2023-05-09T11:26:19.065Z,23.48
2023-05-09T11:27:19.048Z,23.51
2023-05-09T11:28:19.064Z,23.75
2023-05-09T11:29:19.051Z,23.72
2023-05-09T11:30:19.066Z,23.79
2023-05-09T11:31:19.162Z,23.79
2023-05-09T11:32:19.017Z,23.87
2023-05-09T11:33:18.996Z,23.91
2023-05-09T11:34:18.980Z,24.09
2023-05-09T11:35:19.163Z,24.15
2023-05-09T11:36:18.962Z,24.43
2023-05-09T11:37:18.928Z,24.60
2023-05-09T11:38:18.941Z,24.49
2023-05-09T11:39:18.938Z,24.77
2023-05-09T11:40:18.955Z,25.21
2023-05-09T11:41:18.888Z,25.50
2023-05-09T11:42:19.020Z,25.83
2023-05-09T11:43:18.928Z,25.95
2023-05-09T11:44:18.891Z,25.70
2023-05-09T11:45:18.881Z,25.57
2023-05-09T11:46:18.903Z,25.52
2023-05-09T11:47:18.840Z,25.21
2023-05-09T11:48:18.871Z,25.17
2023-05-09T11:49:18.820Z,25.13
2023-05-09T11:50:18.819Z,24.98
2023-05-09T11:51:18.807Z,24.83
2023-05-09T11:52:18.812Z,24.77
2023-05-09T11:53:18.811Z,24.85
2023-05-09T11:54:18.804Z,24.87
2023-05-09T11:55:19.370Z,24.61
2023-05-09T11:56:18.782Z,24.46
2023-05-09T11:57:18.760Z,24.42
2023-05-09T11:58:18.752Z,24.47
2023-05-09T11:59:18.725Z,24.60
2023-05-09T12:00:18.751Z,24.46
2023-05-09T12:01:18.715Z,24.34
2023-05-09T12:02:18.739Z,24.46
2023-05-09T12:03:18.851Z,24.77
2023-05-09T12:04:18.773Z,24.85
2023-05-09T12:05:18.740Z,24.87
2023-05-09T12:06:18.755Z,24.99
2023-05-09T12:07:18.646Z,25.09
2023-05-09T12:08:18.606Z,25.39
2023-05-09T12:09:18.602Z,25.36
2023-05-09T12:10:18.598Z,25.42
2023-05-09T12:11:18.579Z,25.27
2023-05-09T12:12:18.573Z,25.32
2023-05-09T12:13:18.574Z,25.51
2023-05-09T12:14:18.559Z,25.67
2023-05-09T12:15:19.574Z,25.90
2023-05-09T12:16:18.601Z,26.01
2023-05-09T12:17:18.535Z,26.30
2023-05-09T12:18:18.511Z,26.43
2023-05-09T12:19:18.498Z,26.63
2023-05-09T12:20:18.506Z,26.94
2023-05-09T12:21:18.483Z,27.02
2023-05-09T12:22:18.488Z,27.09
2023-05-09T12:23:18.459Z,26.92
2023-05-09T12:24:18.452Z,26.89
2023-05-09T12:25:18.457Z,26.55
2023-05-09T12:26:18.432Z,26.40
2023-05-09T12:27:18.442Z,26.18
2023-05-09T12:28:18.425Z,26.40
2023-05-09T12:29:18.400Z,26.43
2023-05-09T12:30:18.389Z,25.99
2023-05-09T12:31:18.443Z,25.60
2023-05-09T12:32:18.377Z,25.30
2023-05-09T12:33:18.357Z,25.27
2023-05-09T12:34:18.347Z,25.05
2023-05-09T12:35:18.334Z,24.96
2023-05-09T12:36:18.338Z,24.71
2023-05-09T12:37:18.663Z,24.69
2023-05-09T12:38:18.299Z,24.67
2023-05-09T12:39:18.295Z,24.62
2023-05-09T12:40:18.299Z,24.50
2023-05-09T12:41:34.842Z,24.55
2023-05-09T12:42:19.271Z,24.53
2023-05-09T12:43:18.358Z,24.35
2023-05-09T12:44:18.254Z,24.08
2023-05-09T12:45:18.373Z,23.97
2023-05-09T12:46:18.268Z,23.93
2023-05-09T12:47:18.263Z,23.94
2023-05-09T12:48:18.235Z,23.93
2023-05-09T12:49:18.194Z,23.94
2023-05-09T12:50:18.180Z,23.84
2023-05-09T12:51:18.167Z,23.66
2023-05-09T12:52:18.182Z,23.46
2023-05-09T12:53:18.155Z,23.33